• Join FlightAware (Why Join?)
  • Login
  • US Flag 
04:30AM EDT


 

Airport Tracker/Info


-or-


 

Live Flight TrackerFlight Track Log ✈ DAL3691 ✈ 27-Apr-2013 ✈ KDTW - KMDT

Flight Track Log - Related Links

Times and Time Zones

All times are in EDT time to prevent confusion due to time zone crossing. See the DAL3691 flight status page for this flight to view local times or setup timezone preferences in your user account.

Time Position Orientation Groundspeed Altitude Reporting Facility
EDT Latitude Longitude Course Direction KTS MPH feet Rate Location/Type
02:13PM 42.2017 -83.3583 90° East 154 177 1,300  Level Cleveland Center
02:14PM 42.1700 -83.3708 196° South 168 193 2,800 1,980 Climbing Cleveland Center
02:15PM 42.1153 -83.3908 195° South 243 280 4,800 2,340 Climbing Cleveland Center
02:16PM 42.0458 -83.4158 195° South 261 300 7,700 2,460 Climbing Cleveland Center
02:17PM 42.2167 -82.7509 90° East  Level FlightAware Approximate
02:17PM 41.9931 -83.3575 141° Southeast 296 341 9,900  Level Cleveland Center
02:18PM 42.2167 -82.6002 90° East  Level FlightAware Approximate
02:18PM 42.0053 -83.2881 77° East 336 387 10,000  Level Cleveland Center
02:19PM 42.2167 -82.4495 90° East  Level FlightAware Approximate
02:19PM 42.0417 -83.1528 70° East 369 425 10,000  Level Cleveland Center
02:20PM 42.0758 -83.0197 71° East 369 425 11,200 1,740 Climbing Cleveland Center
02:21PM 42.1119 -82.8894 69° East 369 425 13,500 2,100 Climbing Cleveland Center
02:22PM 42.1458 -82.7564 71° East 369 425 15,500 1,500 Climbing Cleveland Center
02:23PM 42.1817 -82.6203 70° East 369 425 16,500 1,200 Climbing Cleveland Center
02:24PM 42.2175 -82.4783 71° East 375 432 18,000 1,260 Climbing Cleveland Center
02:25PM 42.2175 -82.3297 90° East 387 445 19,100 1,020 Climbing Cleveland Center
02:26PM 42.2053 -82.1781 96° East 387 445 20,100 960 Climbing Cleveland Center
02:27PM 42.1947 -82.0181 95° East 407 468 21,100 960 Climbing Cleveland Center
02:28PM 42.1422 -81.8853 118° Southeast 413 475 22,100 900 Climbing Cleveland Center
02:29PM 42.0517 -81.7772 138° Southeast 400 460 23,000 720 Climbing Cleveland Center
02:30PM 41.9672 -81.6833 140° Southeast 429 494 23,600 540 Climbing Cleveland Center
02:31PM 41.8744 -81.5731 138° Southeast 443 510 24,100 660 Climbing Cleveland Center
02:32PM 41.7794 -81.4631 139° Southeast 456 525 25,000 900 Climbing Cleveland Center
02:33PM 41.6842 -81.3533 139° Southeast 451 519 26,000 960 Climbing Cleveland Center
02:34PM 41.5892 -81.2467 140° Southeast 451 519 27,000 480 Climbing Cleveland Center
02:35PM 41.4939 -81.1097 133° Southeast 451 519 27,000  Level Cleveland Center
02:36PM 41.4361 -80.9542 116° Southeast 468 539 27,000  Level Cleveland Center
02:37PM 41.3739 -80.7961 118° Southeast 473 544 27,000  Level Cleveland Center
02:38PM 41.3117 -80.6383 118° Southeast 478 550 27,000  Level Cleveland Center
02:39PM 41.2492 -80.4808 118° Southeast 478 550 27,000 -300 Level Cleveland Center
02:40PM 41.1967 -80.3375 116° Southeast 478 550 26,500 -1,020 Descending Cleveland Center
02:41PM 41.1339 -80.1778 118° Southeast 478 550 25,000 -1,260 Descending Cleveland Center
02:42PM 41.0706 -80.0267 119° Southeast 473 544 24,000 -540 Descending Cleveland Center
02:43PM 41.0114 -79.8786 118° Southeast 467 537 24,000  Level Cleveland Center
02:44PM 40.9542 -79.7308 117° Southeast 456 525 24,000 -420 Level Cleveland Center
02:45PM 40.8947 -79.5889 119° Southeast 451 519 23,200 -900 Descending Cleveland Center
02:46PM 40.8350 -79.4442 119° Southeast 451 519 22,200 -1,020 Descending Cleveland Center
02:47PM 40.7833 -79.2969 115° Southeast 451 519 21,200 -1,020 Descending Cleveland Center
02:48PM 40.7481 -79.1333 106° East 439 505 20,200 -1,020 Descending Cleveland Center
02:49PM 40.7167 -78.9806 105° East 429 494 19,200 -1,020 Descending Cleveland Center
02:50PM 40.6856 -78.8417 106° East 424 488 18,200 -780 Descending Cleveland Center
02:51PM 40.6539 -78.6919 106° East 424 488 17,700 -600 Descending Cleveland Center
02:52PM 40.6244 -78.5450 105° East 424 488 17,000 -360 Descending Cleveland Center
02:53PM 40.5925 -78.3983 106° East 418 481 17,000  Level Cleveland Center
02:53PM 40.5817 -78.3411 104° East 416 479 17,000  Level New York Center
02:54PM 40.5525 -78.2094 106° East 411 473 17,000 -60 Level New York Center
02:55PM 40.5200 -78.0611 106° East 411 473 16,900 -900 Descending New York Center
02:56PM 40.4911 -77.9217 105° East 406 467 15,300 -2,100 Descending New York Center
02:57PM 40.4653 -77.7933 105° East 388 447 12,800 -2,100 Descending New York Center
02:58PM 40.4369 -77.6758 108° East 358 412 11,200 -1,560 Descending New York Center
02:59PM 40.4136 -77.5756 107° East 311 358 9,700 -1,800 Descending New York Center
03:00PM 40.3903 -77.4694 106° East 282 325 7,600 -1,800 Descending New York Center
03:01PM 40.3722 -77.3833 105° East 277 319 6,200 -1,740 Descending New York Center
03:02PM 40.3506 -77.2858 106° East 265 305 4,200 -1,560 Descending New York Center
03:03PM 40.3342 -77.2053 105° East 260 299 3,100 -600 Descending New York Center
03:04PM 40.3122 -77.1081 106° East 250 288 3,100 -60 Level New York Center
03:05PM 40.2956 -77.0303 106° East 255 293 3,000 -120 Descending New York Center